sensor_id;sensor_type;location;lat;lon;timestamp;pressure;altitude;pressure_sealevel;temperature;humidity
74561;BME280;62979;55.720;37.606;2023-08-30T00:01:10;99598.97;;;18.73;63.24
74561;BME280;62979;55.720;37.606;2023-08-30T00:03:37;99597.16;;;18.74;63.05
74561;BME280;62979;55.720;37.606;2023-08-30T00:06:05;99596.41;;;18.72;62.92
74561;BME280;62979;55.720;37.606;2023-08-30T00:08:33;99596.31;;;18.73;62.98
74561;BME280;62979;55.720;37.606;2023-08-30T00:11:01;99595.47;;;18.73;62.94
74561;BME280;62979;55.720;37.606;2023-08-30T00:13:32;99598.13;;;18.73;63.00
74561;BME280;62979;55.720;37.606;2023-08-30T00:15:59;99595.47;;;18.73;63.12
74561;BME280;62979;55.720;37.606;2023-08-30T00:18:27;99592.41;;;18.65;63.22
74561;BME280;62979;55.720;37.606;2023-08-30T00:20:54;99590.53;;;18.67;63.10
74561;BME280;62979;55.720;37.606;2023-08-30T00:23:22;99594.72;;;18.71;62.87
74561;BME280;62979;55.720;37.606;2023-08-30T00:25:49;99601.03;;;18.68;63.02
74561;BME280;62979;55.720;37.606;2023-08-30T00:28:16;99592.97;;;18.70;62.69
74561;BME280;62979;55.720;37.606;2023-08-30T00:30:44;99583.22;;;18.70;62.76
74561;BME280;62979;55.720;37.606;2023-08-30T00:33:11;99587.53;;;18.73;62.44
74561;BME280;62979;55.720;37.606;2023-08-30T00:35:38;99605.38;;;18.69;62.70
74561;BME280;62979;55.720;37.606;2023-08-30T00:38:05;99596.09;;;18.62;62.91
74561;BME280;62979;55.720;37.606;2023-08-30T00:40:37;99593.63;;;18.59;63.14
74561;BME280;62979;55.720;37.606;2023-08-30T00:43:05;99604.88;;;18.63;63.04
74561;BME280;62979;55.720;37.606;2023-08-30T00:45:33;99602.63;;;18.56;63.05
74561;BME280;62979;55.720;37.606;2023-08-30T00:48:02;99606.09;;;18.57;62.99
74561;BME280;62979;55.720;37.606;2023-08-30T00:50:31;99611.41;;;18.57;62.72
74561;BME280;62979;55.720;37.606;2023-08-30T00:52:58;99617.34;;;18.46;62.71
74561;BME280;62979;55.720;37.606;2023-08-30T00:55:30;99622.25;;;18.52;62.89
74561;BME280;62979;55.720;37.606;2023-08-30T00:57:58;99614.44;;;18.51;62.53
74561;BME280;62979;55.720;37.606;2023-08-30T01:00:27;99629.00;;;18.58;62.63
74561;BME280;62979;55.720;37.606;2023-08-30T01:02:54;99625.22;;;18.62;62.30
74561;BME280;62979;55.720;37.606;2023-08-30T01:05:23;99622.97;;;18.56;62.33
74561;BME280;62979;55.720;37.606;2023-08-30T01:07:50;99618.78;;;18.52;61.97
74561;BME280;62979;55.720;37.606;2023-08-30T01:10:35;99627.28;;;18.57;62.03
74561;BME280;62979;55.720;37.606;2023-08-30T01:13:14;99623.88;;;18.55;62.11
74561;BME280;62979;55.720;37.606;2023-08-30T01:15:46;99633.38;;;18.59;62.25
74561;BME280;62979;55.720;37.606;2023-08-30T01:18:17;99625.41;;;18.59;62.04
74561;BME280;62979;55.720;37.606;2023-08-30T01:20:47;99614.59;;;18.48;61.50
74561;BME280;62979;55.720;37.606;2023-08-30T01:23:24;99633.44;;;18.57;61.58
74561;BME280;62979;55.720;37.606;2023-08-30T01:26:03;99625.59;;;18.56;61.54
74561;BME280;62979;55.720;37.606;2023-08-30T01:28:36;99632.59;;;18.57;61.71
74561;BME280;62979;55.720;37.606;2023-08-30T01:31:06;99634.28;;;18.58;61.22
74561;BME280;62979;55.720;37.606;2023-08-30T01:33:36;99637.63;;;18.61;61.28
74561;BME280;62979;55.720;37.606;2023-08-30T01:36:05;99637.69;;;18.60;61.33
74561;BME280;62979;55.720;37.606;2023-08-30T01:38:33;99625.50;;;18.57;61.16
74561;BME280;62979;55.720;37.606;2023-08-30T01:41:01;99632.59;;;18.57;61.28
74561;BME280;62979;55.720;37.606;2023-08-30T01:43:29;99635.06;;;18.60;60.91
74561;BME280;62979;55.720;37.606;2023-08-30T01:46:00;99638.53;;;18.60;61.28
74561;BME280;62979;55.720;37.606;2023-08-30T01:48:31;99652.81;;;18.58;61.31
74561;BME280;62979;55.720;37.606;2023-08-30T01:51:00;99649.34;;;18.57;61.04
74561;BME280;62979;55.720;37.606;2023-08-30T01:53:28;99642.34;;;18.56;61.00
74561;BME280;62979;55.720;37.606;2023-08-30T01:55:57;99643.00;;;18.60;60.80
74561;BME280;62979;55.720;37.606;2023-08-30T01:58:24;99637.81;;;18.58;61.07
74561;BME280;62979;55.720;37.606;2023-08-30T02:00:51;99650.19;;;18.58;60.99
74561;BME280;62979;55.720;37.606;2023-08-30T02:03:19;99631.47;;;18.61;60.57
74561;BME280;62979;55.720;37.606;2023-08-30T02:05:55;99646.41;;;18.62;60.71
74561;BME280;62979;55.720;37.606;2023-08-30T02:08:35;99647.38;;;18.61;60.86
74561;BME280;62979;55.720;37.606;2023-08-30T02:11:08;99644.88;;;18.58;60.66
74561;BME280;62979;55.720;37.606;2023-08-30T02:13:41;99643.97;;;18.59;60.74
74561;BME280;62979;55.720;37.606;2023-08-30T02:16:12;99642.06;;;18.61;60.81
74561;BME280;62979;55.720;37.606;2023-08-30T02:18:41;99645.38;;;18.65;60.39
74561;BME280;62979;55.720;37.606;2023-08-30T02:21:09;99642.16;;;18.59;60.86
74561;BME280;62979;55.720;37.606;2023-08-30T02:23:36;99628.91;;;18.59;60.71
74561;BME280;62979;55.720;37.606;2023-08-30T02:26:03;99643.69;;;18.64;60.55
74561;BME280;62979;55.720;37.606;2023-08-30T02:28:31;99640.19;;;18.63;60.94
74561;BME280;62979;55.720;37.606;2023-08-30T02:30:57;99644.72;;;18.61;60.72
74561;BME280;62979;55.720;37.606;2023-08-30T02:33:25;99639.19;;;18.50;60.74
74561;BME280;62979;55.720;37.606;2023-08-30T02:35:53;99650.66;;;18.34;61.18
74561;BME280;62979;55.720;37.606;2023-08-30T02:38:20;99645.81;;;18.27;61.54
74561;BME280;62979;55.720;37.606;2023-08-30T02:40:47;99657.44;;;18.24;61.66
74561;BME280;62979;55.720;37.606;2023-08-30T02:43:14;99653.66;;;18.28;61.98
74561;BME280;62979;55.720;37.606;2023-08-30T02:45:41;99656.75;;;18.36;61.66
74561;BME280;62979;55.720;37.606;2023-08-30T02:48:07;99658.75;;;18.47;61.18
74561;BME280;62979;55.720;37.606;2023-08-30T02:50:34;99663.88;;;18.50;61.17
74561;BME280;62979;55.720;37.606;2023-08-30T02:53:03;99658.56;;;18.50;60.73
74561;BME280;62979;55.720;37.606;2023-08-30T02:55:33;99656.56;;;18.39;60.99
74561;BME280;62979;55.720;37.606;2023-08-30T02:58:01;99665.88;;;18.31;61.45
74561;BME280;62979;55.720;37.606;2023-08-30T03:00:27;99654.34;;;18.32;61.23
74561;BME280;62979;55.720;37.606;2023-08-30T03:02:55;99657.84;;;18.32;61.30
74561;BME280;62979;55.720;37.606;2023-08-30T03:05:21;99655.44;;;18.28;61.19
74561;BME280;62979;55.720;37.606;2023-08-30T03:07:48;99643.44;;;18.22;61.18
74561;BME280;62979;55.720;37.606;2023-08-30T03:10:17;99655.78;;;18.37;61.11
74561;BME280;62979;55.720;37.606;2023-08-30T03:12:44;99649.38;;;18.42;61.11
74561;BME280;62979;55.720;37.606;2023-08-30T03:15:11;99644.66;;;18.47;60.77
74561;BME280;62979;55.720;37.606;2023-08-30T03:17:38;99649.19;;;18.45;60.57
74561;BME280;62979;55.720;37.606;2023-08-30T03:20:06;99656.09;;;18.47;60.90
74561;BME280;62979;55.720;37.606;2023-08-30T03:22:34;99661.41;;;18.47;60.69
74561;BME280;62979;55.720;37.606;2023-08-30T03:25:00;99651.75;;;18.46;60.59
74561;BME280;62979;55.720;37.606;2023-08-30T03:27:30;99651.91;;;18.43;60.78
74561;BME280;62979;55.720;37.606;2023-08-30T03:29:58;99659.53;;;18.49;60.71
74561;BME280;62979;55.720;37.606;2023-08-30T03:32:26;99656.38;;;18.43;60.47
74561;BME280;62979;55.720;37.606;2023-08-30T03:34:53;99663.53;;;18.40;60.70
74561;BME280;62979;55.720;37.606;2023-08-30T03:37:19;99668.84;;;18.40;60.64
74561;BME280;62979;55.720;37.606;2023-08-30T03:39:47;99666.78;;;18.46;60.43
74561;BME280;62979;55.720;37.606;2023-08-30T03:42:14;99657.53;;;18.53;59.92
74561;BME280;62979;55.720;37.606;2023-08-30T03:44:42;99666.25;;;18.55;59.83
74561;BME280;62979;55.720;37.606;2023-08-30T03:47:09;99657.38;;;18.56;60.14
74561;BME280;62979;55.720;37.606;2023-08-30T03:49:36;99648.28;;;18.60;59.53
74561;BME280;62979;55.720;37.606;2023-08-30T03:52:04;99652.66;;;18.61;59.46
74561;BME280;62979;55.720;37.606;2023-08-30T03:54:31;99657.38;;;18.56;59.56
74561;BME280;62979;55.720;37.606;2023-08-30T03:56:59;99658.88;;;18.60;58.74
74561;BME280;62979;55.720;37.606;2023-08-30T03:59:26;99663.06;;;18.64;58.37
74561;BME280;62979;55.720;37.606;2023-08-30T04:01:54;99654.28;;;18.64;58.45
74561;BME280;62979;55.720;37.606;2023-08-30T04:04:22;99662.69;;;18.70;58.23
74561;BME280;62979;55.720;37.606;2023-08-30T04:06:48;99659.75;;;18.76;58.08
74561;BME280;62979;55.720;37.606;2023-08-30T04:09:15;99662.78;;;18.85;57.48
74561;BME280;62979;55.720;37.606;2023-08-30T04:11:43;99662.97;;;18.81;58.15
74561;BME280;62979;55.720;37.606;2023-08-30T04:14:10;99672.34;;;18.87;58.54
74561;BME280;62979;55.720;37.606;2023-08-30T04:16:37;99663.34;;;18.90;58.32
74561;BME280;62979;55.720;37.606;2023-08-30T04:19:05;99660.53;;;18.93;57.74
74561;BME280;62979;55.720;37.606;2023-08-30T04:21:32;99647.06;;;18.81;58.33
74561;BME280;62979;55.720;37.606;2023-08-30T04:23:59;99659.19;;;18.86;57.56
74561;BME280;62979;55.720;37.606;2023-08-30T04:26:26;99652.44;;;18.80;57.74
74561;BME280;62979;55.720;37.606;2023-08-30T04:28:53;99665.84;;;18.93;57.81
74561;BME280;62979;55.720;37.606;2023-08-30T04:31:19;99670.50;;;19.03;57.38
74561;BME280;62979;55.720;37.606;2023-08-30T04:33:46;99675.53;;;19.08;56.79
74561;BME280;62979;55.720;37.606;2023-08-30T04:36:15;99683.13;;;19.14;56.63
74561;BME280;62979;55.720;37.606;2023-08-30T04:38:41;99675.16;;;19.14;56.45
74561;BME280;62979;55.720;37.606;2023-08-30T04:41:08;99672.59;;;19.13;56.34
74561;BME280;62979;55.720;37.606;2023-08-30T04:43:36;99684.81;;;19.15;56.32
74561;BME280;62979;55.720;37.606;2023-08-30T04:46:03;99670.88;;;19.12;56.21
74561;BME280;62979;55.720;37.606;2023-08-30T04:48:30;99681.69;;;19.23;56.84
74561;BME280;62979;55.720;37.606;2023-08-30T04:51:01;99678.56;;;19.31;56.32
74561;BME280;62979;55.720;37.606;2023-08-30T04:53:31;99676.31;;;19.39;56.06
74561;BME280;62979;55.720;37.606;2023-08-30T04:55:58;99684.84;;;19.44;55.95
74561;BME280;62979;55.720;37.606;2023-08-30T04:58:25;99669.22;;;19.39;55.87
74561;BME280;62979;55.720;37.606;2023-08-30T05:00:55;99685.22;;;19.38;55.72
74561;BME280;62979;55.720;37.606;2023-08-30T05:03:23;99688.28;;;19.46;55.65
74561;BME280;62979;55.720;37.606;2023-08-30T05:05:50;99684.28;;;19.53;55.54
74561;BME280;62979;55.720;37.606;2023-08-30T05:08:16;99674.25;;;19.58;55.17
74561;BME280;62979;55.720;37.606;2023-08-30T05:10:45;99679.00;;;19.67;55.09
74561;BME280;62979;55.720;37.606;2023-08-30T05:13:14;99665.63;;;19.69;54.39
74561;BME280;62979;55.720;37.606;2023-08-30T05:15:42;99663.25;;;19.64;54.82
74561;BME280;62979;55.720;37.606;2023-08-30T05:18:08;99671.59;;;19.73;54.62
74561;BME280;62979;55.720;37.606;2023-08-30T05:20:35;99679.09;;;19.80;54.53
74561;BME280;62979;55.720;37.606;2023-08-30T05:23:03;99680.69;;;19.83;54.00
74561;BME280;62979;55.720;37.606;2023-08-30T05:25:29;99676.88;;;19.87;53.85
74561;BME280;62979;55.720;37.606;2023-08-30T05:27:58;99670.91;;;19.98;53.75
74561;BME280;62979;55.720;37.606;2023-08-30T05:30:25;99649.47;;;20.01;53.70
74561;BME280;62979;55.720;37.606;2023-08-30T05:32:52;99651.50;;;19.97;53.99
74561;BME280;62979;55.720;37.606;2023-08-30T05:35:19;99660.41;;;19.82;53.30
74561;BME280;62979;55.720;37.606;2023-08-30T05:37:46;99658.97;;;19.62;53.50
74561;BME280;62979;55.720;37.606;2023-08-30T05:40:13;99649.41;;;19.31;53.94
74561;BME280;62979;55.720;37.606;2023-08-30T05:42:42;99664.81;;;18.95;55.09
74561;BME280;62979;55.720;37.606;2023-08-30T05:45:13;99663.88;;;19.11;55.17
74561;BME280;62979;55.720;37.606;2023-08-30T05:47:40;99649.59;;;19.28;54.31
74561;BME280;62979;55.720;37.606;2023-08-30T05:50:07;99652.16;;;19.15;54.61
74561;BME280;62979;55.720;37.606;2023-08-30T05:52:35;99660.19;;;19.13;55.36
74561;BME280;62979;55.720;37.606;2023-08-30T05:55:07;99670.06;;;19.40;55.58
74561;BME280;62979;55.720;37.606;2023-08-30T05:57:34;99675.41;;;19.69;54.52
74561;BME280;62979;55.720;37.606;2023-08-30T06:00:01;99674.34;;;19.85;54.12
74561;BME280;62979;55.720;37.606;2023-08-30T06:02:31;99679.94;;;19.81;53.49
74561;BME280;62979;55.720;37.606;2023-08-30T06:04:58;99682.19;;;19.87;54.52
74561;BME280;62979;55.720;37.606;2023-08-30T06:07:25;99673.66;;;19.96;53.42
74561;BME280;62979;55.720;37.606;2023-08-30T06:09:52;99680.75;;;20.10;53.21
74561;BME280;62979;55.720;37.606;2023-08-30T06:12:19;99680.28;;;20.03;53.17
74561;BME280;62979;55.720;37.606;2023-08-30T06:14:46;99691.19;;;19.84;53.87
74561;BME280;62979;55.720;37.606;2023-08-30T06:17:17;99696.41;;;20.00;53.57
74561;BME280;62979;55.720;37.606;2023-08-30T06:19:45;99697.25;;;20.01;53.44
74561;BME280;62979;55.720;37.606;2023-08-30T06:22:12;99684.88;;;20.14;53.50
74561;BME280;62979;55.720;37.606;2023-08-30T06:24:40;99686.91;;;20.10;52.41
74561;BME280;62979;55.720;37.606;2023-08-30T06:27:06;99686.53;;;20.17;53.95
74561;BME280;62979;55.720;37.606;2023-08-30T06:29:33;99684.84;;;20.28;53.35
74561;BME280;62979;55.720;37.606;2023-08-30T06:32:00;99683.06;;;20.29;52.50
74561;BME280;62979;55.720;37.606;2023-08-30T06:34:27;99677.59;;;20.18;51.74
74561;BME280;62979;55.720;37.606;2023-08-30T06:36:56;99686.41;;;20.18;52.83
74561;BME280;62979;55.720;37.606;2023-08-30T06:39:23;99693.31;;;20.21;52.66
74561;BME280;62979;55.720;37.606;2023-08-30T06:41:50;99694.63;;;20.28;52.88
74561;BME280;62979;55.720;37.606;2023-08-30T06:44:17;99674.78;;;20.34;52.28
74561;BME280;62979;55.720;37.606;2023-08-30T06:46:43;99684.63;;;20.46;52.28
74561;BME280;62979;55.720;37.606;2023-08-30T06:49:10;99687.84;;;20.51;51.99
74561;BME280;62979;55.720;37.606;2023-08-30T06:51:37;99685.31;;;20.35;51.22
74561;BME280;62979;55.720;37.606;2023-08-30T06:54:06;99685.28;;;20.49;51.72
74561;BME280;62979;55.720;37.606;2023-08-30T06:56:33;99681.91;;;20.60;51.26
74561;BME280;62979;55.720;37.606;2023-08-30T06:58:59;99687.53;;;20.56;51.41
74561;BME280;62979;55.720;37.606;2023-08-30T07:01:26;99702.47;;;20.58;51.06
74561;BME280;62979;55.720;37.606;2023-08-30T07:03:53;99697.72;;;20.49;51.15
74561;BME280;62979;55.720;37.606;2023-08-30T07:06:20;99689.44;;;20.53;52.09
74561;BME280;62979;55.720;37.606;2023-08-30T07:08:47;99690.56;;;20.64;50.54
74561;BME280;62979;55.720;37.606;2023-08-30T07:11:15;99688.03;;;20.75;50.13
74561;BME280;62979;55.720;37.606;2023-08-30T07:13:42;99682.72;;;20.75;50.83
74561;BME280;62979;55.720;37.606;2023-08-30T07:16:09;99696.41;;;20.69;50.37
74561;BME280;62979;55.720;37.606;2023-08-30T07:18:36;99702.50;;;20.71;50.41
74561;BME280;62979;55.720;37.606;2023-08-30T07:21:04;99697.16;;;20.71;50.53
74561;BME280;62979;55.720;37.606;2023-08-30T07:23:31;99705.91;;;20.73;50.36
74561;BME280;62979;55.720;37.606;2023-08-30T07:25:58;99710.59;;;20.82;49.60
74561;BME280;62979;55.720;37.606;2023-08-30T07:28:27;99698.94;;;20.98;49.96
74561;BME280;62979;55.720;37.606;2023-08-30T07:31:02;99697.66;;;20.90;50.19
74561;BME280;62979;55.720;37.606;2023-08-30T07:33:29;99698.81;;;20.99;50.08
74561;BME280;62979;55.720;37.606;2023-08-30T07:35:56;99705.94;;;20.99;49.58
74561;BME280;62979;55.720;37.606;2023-08-30T07:38:23;99701.06;;;21.05;49.74
74561;BME280;62979;55.720;37.606;2023-08-30T07:40:50;99703.06;;;21.02;49.47
74561;BME280;62979;55.720;37.606;2023-08-30T07:43:17;99702.38;;;21.12;49.09
74561;BME280;62979;55.720;37.606;2023-08-30T07:45:45;99701.94;;;21.19;49.07
74561;BME280;62979;55.720;37.606;2023-08-30T07:48:12;99701.53;;;21.37;48.58
74561;BME280;62979;55.720;37.606;2023-08-30T07:50:39;99703.06;;;21.42;48.28
74561;BME280;62979;55.720;37.606;2023-08-30T07:53:06;99706.47;;;21.44;48.04
74561;BME280;62979;55.720;37.606;2023-08-30T07:55:35;99700.41;;;21.42;48.89
74561;BME280;62979;55.720;37.606;2023-08-30T07:58:02;99705.19;;;21.49;48.10
74561;BME280;62979;55.720;37.606;2023-08-30T08:00:29;99707.00;;;21.49;47.68
74561;BME280;62979;55.720;37.606;2023-08-30T08:02:57;99714.13;;;21.61;47.47
74561;BME280;62979;55.720;37.606;2023-08-30T08:05:24;99711.22;;;21.77;47.88
74561;BME280;62979;55.720;37.606;2023-08-30T08:07:52;99708.75;;;21.87;47.13
74561;BME280;62979;55.720;37.606;2023-08-30T08:10:19;99710.59;;;21.73;46.85
74561;BME280;62979;55.720;37.606;2023-08-30T08:12:47;99715.72;;;22.13;46.63
74561;BME280;62979;55.720;37.606;2023-08-30T08:15:14;99724.06;;;22.21;46.41
74561;BME280;62979;55.720;37.606;2023-08-30T08:17:41;99730.00;;;22.25;45.72
74561;BME280;62979;55.720;37.606;2023-08-30T08:20:10;99716.19;;;22.20;45.91
74561;BME280;62979;55.720;37.606;2023-08-30T08:22:37;99717.09;;;22.32;45.47
74561;BME280;62979;55.720;37.606;2023-08-30T08:25:04;99710.22;;;22.40;45.73
74561;BME280;62979;55.720;37.606;2023-08-30T08:27:35;99730.81;;;22.62;45.50
74561;BME280;62979;55.720;37.606;2023-08-30T08:30:02;99733.63;;;22.85;45.14
74561;BME280;62979;55.720;37.606;2023-08-30T08:32:30;99734.53;;;22.73;45.07
74561;BME280;62979;55.720;37.606;2023-08-30T08:34:58;99725.91;;;22.69;44.38
74561;BME280;62979;55.720;37.606;2023-08-30T08:37:26;99741.03;;;22.69;44.49
74561;BME280;62979;55.720;37.606;2023-08-30T08:39:53;99732.97;;;22.81;44.72
74561;BME280;62979;55.720;37.606;2023-08-30T08:42:21;99732.47;;;23.00;45.13
74561;BME280;62979;55.720;37.606;2023-08-30T08:44:51;99735.16;;;23.12;45.18
74561;BME280;62979;55.720;37.606;2023-08-30T08:47:19;99737.63;;;23.26;43.15
74561;BME280;62979;55.720;37.606;2023-08-30T08:49:47;99734.00;;;23.27;43.72
74561;BME280;62979;55.720;37.606;2023-08-30T08:52:17;99732.41;;;23.13;44.19
74561;BME280;62979;55.720;37.606;2023-08-30T08:54:45;99744.53;;;23.17;44.38
74561;BME280;62979;55.720;37.606;2023-08-30T08:57:13;99738.13;;;23.20;44.31
74561;BME280;62979;55.720;37.606;2023-08-30T08:59:40;99734.38;;;23.22;44.11
74561;BME280;62979;55.720;37.606;2023-08-30T09:02:07;99752.06;;;23.12;43.88
74561;BME280;62979;55.720;37.606;2023-08-30T09:04:39;99742.75;;;23.29;43.52
74561;BME280;62979;55.720;37.606;2023-08-30T09:07:06;99752.78;;;23.61;42.32
74561;BME280;62979;55.720;37.606;2023-08-30T09:09:34;99759.34;;;23.68;42.92
74561;BME280;62979;55.720;37.606;2023-08-30T09:12:03;99758.16;;;23.83;41.89
74561;BME280;62979;55.720;37.606;2023-08-30T09:14:30;99756.94;;;23.76;42.22
74561;BME280;62979;55.720;37.606;2023-08-30T09:16:58;99763.00;;;23.78;42.33
74561;BME280;62979;55.720;37.606;2023-08-30T09:19:26;99758.13;;;23.95;42.41
74561;BME280;62979;55.720;37.606;2023-08-30T09:21:53;99754.38;;;23.86;42.66
74561;BME280;62979;55.720;37.606;2023-08-30T09:24:22;99751.44;;;24.11;41.68
74561;BME280;62979;55.720;37.606;2023-08-30T09:26:50;99763.50;;;24.17;41.87
74561;BME280;62979;55.720;37.606;2023-08-30T09:29:21;99768.47;;;23.99;41.71
74561;BME280;62979;55.720;37.606;2023-08-30T09:31:51;99768.59;;;23.86;42.08
74561;BME280;62979;55.720;37.606;2023-08-30T09:34:22;99768.94;;;23.82;41.79
74561;BME280;62979;55.720;37.606;2023-08-30T09:36:50;99757.13;;;23.62;43.29
74561;BME280;62979;55.720;37.606;2023-08-30T09:39:17;99762.03;;;23.79;43.34
74561;BME280;62979;55.720;37.606;2023-08-30T09:41:45;99747.19;;;24.09;42.35
74561;BME280;62979;55.720;37.606;2023-08-30T09:44:15;99765.81;;;24.22;42.17
74561;BME280;62979;55.720;37.606;2023-08-30T09:46:46;99765.31;;;24.17;41.89
74561;BME280;62979;55.720;37.606;2023-08-30T09:49:18;99777.69;;;23.84;42.52
74561;BME280;62979;55.720;37.606;2023-08-30T09:51:46;99776.31;;;23.67;42.58
74561;BME280;62979;55.720;37.606;2023-08-30T09:54:15;99781.41;;;23.59;42.05
74561;BME280;62979;55.720;37.606;2023-08-30T09:56:44;99789.72;;;23.32;42.37
74561;BME280;62979;55.720;37.606;2023-08-30T09:59:12;99793.72;;;23.37;43.13
74561;BME280;62979;55.720;37.606;2023-08-30T10:01:41;99779.78;;;23.45;43.40
74561;BME280;62979;55.720;37.606;2023-08-30T10:04:11;99782.63;;;23.66;42.64
74561;BME280;62979;55.720;37.606;2023-08-30T10:06:39;99786.03;;;23.68;43.00
74561;BME280;62979;55.720;37.606;2023-08-30T10:09:07;99780.00;;;24.22;42.29
74561;BME280;62979;55.720;37.606;2023-08-30T10:11:35;99780.66;;;24.81;41.16
74561;BME280;62979;55.720;37.606;2023-08-30T10:14:04;99784.41;;;25.22;40.18
74561;BME280;62979;55.720;37.606;2023-08-30T10:16:37;99784.28;;;25.44;39.31
74561;BME280;62979;55.720;37.606;2023-08-30T10:19:13;99771.50;;;25.27;39.01
74561;BME280;62979;55.720;37.606;2023-08-30T10:21:43;99770.09;;;25.74;39.63
74561;BME280;62979;55.720;37.606;2023-08-30T10:24:12;99769.09;;;26.37;37.86
74561;BME280;62979;55.720;37.606;2023-08-30T10:26:44;99772.94;;;26.44;37.58
74561;BME280;62979;55.720;37.606;2023-08-30T10:29:13;99773.41;;;26.18;37.17
74561;BME280;62979;55.720;37.606;2023-08-30T10:31:43;99766.94;;;26.21;37.18
74561;BME280;62979;55.720;37.606;2023-08-30T10:34:15;99766.41;;;26.27;37.13
74561;BME280;62979;55.720;37.606;2023-08-30T10:36:44;99766.09;;;26.61;36.92
74561;BME280;62979;55.720;37.606;2023-08-30T10:39:12;99773.31;;;27.28;36.51
74561;BME280;62979;55.720;37.606;2023-08-30T10:41:56;99782.72;;;27.71;35.47
74561;BME280;62979;55.720;37.606;2023-08-30T10:44:23;99773.22;;;27.77;34.45
74561;BME280;62979;55.720;37.606;2023-08-30T10:46:54;99769.66;;;27.29;34.22
74561;BME280;62979;55.720;37.606;2023-08-30T10:49:23;99760.03;;;26.88;35.50
74561;BME280;62979;55.720;37.606;2023-08-30T10:51:55;99777.84;;;27.08;35.82
74561;BME280;62979;55.720;37.606;2023-08-30T10:54:24;99774.44;;;27.36;35.18
74561;BME280;62979;55.720;37.606;2023-08-30T10:56:55;99775.72;;;27.51;34.13
74561;BME280;62979;55.720;37.606;2023-08-30T10:59:26;99771.28;;;27.60;33.96
74561;BME280;62979;55.720;37.606;2023-08-30T11:01:55;99779.94;;;27.53;34.73
74561;BME280;62979;55.720;37.606;2023-08-30T11:04:23;99745.28;;;27.50;34.30
74561;BME280;62979;55.720;37.606;2023-08-30T11:06:51;99780.03;;;28.18;33.52
74561;BME280;62979;55.720;37.606;2023-08-30T11:09:20;99769.19;;;28.66;32.78
74561;BME280;62979;55.720;37.606;2023-08-30T11:11:49;99768.44;;;29.09;31.94
74561;BME280;62979;55.720;37.606;2023-08-30T11:14:18;99762.91;;;29.73;31.62
74561;BME280;62979;55.720;37.606;2023-08-30T11:16:45;99764.03;;;29.96;30.94
74561;BME280;62979;55.720;37.606;2023-08-30T11:19:12;99758.84;;;29.51;30.79
74561;BME280;62979;55.720;37.606;2023-08-30T11:21:43;99764.91;;;30.05;29.72
74561;BME280;62979;55.720;37.606;2023-08-30T11:24:11;99762.84;;;30.25;29.50
74561;BME280;62979;55.720;37.606;2023-08-30T11:26:38;99771.63;;;30.86;30.02
74561;BME280;62979;55.720;37.606;2023-08-30T11:29:06;99767.94;;;31.61;29.46
74561;BME280;62979;55.720;37.606;2023-08-30T11:31:34;99766.78;;;32.19;27.88
74561;BME280;62979;55.720;37.606;2023-08-30T11:34:02;99768.66;;;32.50;27.39
74561;BME280;62979;55.720;37.606;2023-08-30T11:36:30;99773.16;;;32.66;27.01
74561;BME280;62979;55.720;37.606;2023-08-30T11:39:00;99766.84;;;31.94;26.00
74561;BME280;62979;55.720;37.606;2023-08-30T11:41:27;99768.78;;;31.12;27.76
74561;BME280;62979;55.720;37.606;2023-08-30T11:43:53;99769.94;;;31.26;28.12
74561;BME280;62979;55.720;37.606;2023-08-30T11:46:21;99773.16;;;31.62;28.32
74561;BME280;62979;55.720;37.606;2023-08-30T11:48:50;99779.44;;;31.46;27.84
74561;BME280;62979;55.720;37.606;2023-08-30T11:51:18;99775.38;;;31.42;27.86
74561;BME280;62979;55.720;37.606;2023-08-30T11:53:45;99772.66;;;31.34;28.13
74561;BME280;62979;55.720;37.606;2023-08-30T11:56:14;99771.38;;;32.10;26.41
74561;BME280;62979;55.720;37.606;2023-08-30T11:58:42;99779.16;;;32.45;26.70
74561;BME280;62979;55.720;37.606;2023-08-30T12:01:09;99771.66;;;32.63;25.90
74561;BME280;62979;55.720;37.606;2023-08-30T12:03:37;99772.03;;;33.06;26.44
74561;BME280;62979;55.720;37.606;2023-08-30T12:06:09;99759.53;;;33.05;25.52
74561;BME280;62979;55.720;37.606;2023-08-30T12:08:37;99773.75;;;33.07;24.90
74561;BME280;62979;55.720;37.606;2023-08-30T12:11:04;99764.47;;;33.24;25.38
74561;BME280;62979;55.720;37.606;2023-08-30T12:13:33;99762.19;;;33.51;25.22
74561;BME280;62979;55.720;37.606;2023-08-30T12:16:01;99756.97;;;33.64;25.38
74561;BME280;62979;55.720;37.606;2023-08-30T12:18:32;99746.91;;;33.73;24.96
74561;BME280;62979;55.720;37.606;2023-08-30T12:21:00;99745.13;;;33.95;25.22
74561;BME280;62979;55.720;37.606;2023-08-30T12:23:29;99742.66;;;34.30;24.18
74561;BME280;62979;55.720;37.606;2023-08-30T12:25:58;99746.41;;;34.29;24.46
74561;BME280;62979;55.720;37.606;2023-08-30T12:28:27;99737.06;;;34.53;24.44
74561;BME280;62979;55.720;37.606;2023-08-30T12:30:56;99735.56;;;34.50;23.96
74561;BME280;62979;55.720;37.606;2023-08-30T12:33:24;99719.91;;;34.67;23.52
74561;BME280;62979;55.720;37.606;2023-08-30T12:35:52;99715.94;;;34.70;23.53
74561;BME280;62979;55.720;37.606;2023-08-30T12:38:19;99714.19;;;34.26;23.27
74561;BME280;62979;55.720;37.606;2023-08-30T12:40:48;99716.91;;;33.52;24.28
74561;BME280;62979;55.720;37.606;2023-08-30T12:43:16;99717.59;;;31.51;27.38
74561;BME280;62979;55.720;37.606;2023-08-30T12:45:44;99714.72;;;31.37;28.10
74561;BME280;62979;55.720;37.606;2023-08-30T12:48:13;99718.81;;;31.96;28.07
74561;BME280;62979;55.720;37.606;2023-08-30T12:50:43;99710.06;;;32.57;26.12
74561;BME280;62979;55.720;37.606;2023-08-30T12:53:11;99700.22;;;32.33;26.54
74561;BME280;62979;55.720;37.606;2023-08-30T12:55:38;99700.72;;;32.36;26.35